Observation data for Northfield on 05/24/2020      Previous  Date  Next       Current Mesonet Observations  Soil Data  Daily Summary Page  Observations in Plain Language
KNOR 240500Z 14010KT 20/12 A2974 RMK A01 T02040118  RH  060%=      5-min Rain = 0
KNOR 240505Z 14009KT 20/12 A2974 RMK A01 T02030117  RH  060%=      5-min Rain = 0
KNOR 240510Z 15009KT 20/12 A2975 RMK A01 T02030118  RH  060%=      5-min Rain = 0
KNOR 240515Z 14008G13KT 20/12 A2975 RMK A01 T01990120  RH  063%=      5-min Rain = 0
KNOR 240520Z 12008KT 20/12 A2975 RMK A01 T02020117  RH  060%=      5-min Rain = 0
KNOR 240525Z 12008KT 21/12 A2975 RMK A01 T02050115  RH  058%=      5-min Rain = 0
KNOR 240530Z 12007KT 21/11 A2975 RMK A01 T02050113  RH  058%=      5-min Rain = 0
KNOR 240535Z 14006KT 21/11 A2976 RMK A01 T02080111  RH  056%=      5-min Rain = 0
KNOR 240540Z 14005KT 21/11 A2976 RMK A01 T02050112  RH  057%=      5-min Rain = 0
KNOR 240545Z 19008KT 20/11 A2978 RMK A01 T02010114  RH  060%=      5-min Rain = 0
KNOR 240550Z 23007KT 19/12 A2979 RMK A01 T01910121  RH  066%=      5-min Rain = 0
KNOR 240555Z 21007KT 19/12 A2979 RMK A01 T01890121  RH  067%=      5-min Rain = 0
KNOR 240600Z 18005KT 19/12 A2979 RMK A01 T01890120  RH  066%=      5-min Rain = 0
KNOR 240605Z 19008KT 19/12 A2979 RMK A01 T01940117  RH  064%=      5-min Rain = 0
KNOR 240610Z 19007KT 19/12 A2979 RMK A01 T01930117  RH  064%=      5-min Rain = 0
KNOR 240615Z 20009KT 19/12 A298 RMK A01 T01920117  RH  064%=      5-min Rain = 0
KNOR 240620Z 21008KT 19/12 A2981 RMK A01 T01900118  RH  065%=      5-min Rain = 0
KNOR 240625Z 18008KT 20/12 A298 RMK A01 T01950115  RH  062%=      5-min Rain = 0
KNOR 240630Z 18006KT 20/12 A298 RMK A01 T01950115  RH  062%=      5-min Rain = 0
KNOR 240635Z 18006KT 19/12 A2981 RMK A01 T01920116  RH  063%=      5-min Rain = 0
KNOR 240640Z 19007KT 19/12 A2981 RMK A01 T01890117  RH  065%=      5-min Rain = 0
KNOR 240645Z 18004KT 19/12 A2981 RMK A01 T01880117  RH  065%=      5-min Rain = 0
KNOR 240650Z 18007KT 19/12 A2981 RMK A01 T01910116  RH  064%=      5-min Rain = 0
KNOR 240655Z 21006KT 19/12 A2981 RMK A01 T01880117  RH  066%=      5-min Rain = 0
KNOR 240700Z 19005KT 18/12 A2982 RMK A01 T01840119  RH  068%=      5-min Rain = 0
KNOR 240705Z 19004KT 19/12 A2982 RMK A01 T01870118  RH  067%=      5-min Rain = 0
KNOR 240710Z 20004KT 19/12 A2982 RMK A01 T01850119  RH  068%=      5-min Rain = 0
KNOR 240715Z 21005KT 18/12 A2982 RMK A01 T01820120  RH  070%=      5-min Rain = 0
KNOR 240720Z 16003KT 18/12 A2982 RMK A01 T01830120  RH  069%=      5-min Rain = 0
KNOR 240725Z 16003KT 19/12 A2982 RMK A01 T01860120  RH  068%=      5-min Rain = 0
KNOR 240730Z 18003KT 18/12 A2982 RMK A01 T01840121  RH  069%=      5-min Rain = 0
KNOR 240735Z 19004KT 18/12 A2982 RMK A01 T01820122  RH  070%=      5-min Rain = 0
KNOR 240740Z 14004KT 18/12 A2981 RMK A01 T01830122  RH  070%=      5-min Rain = 0
KNOR 240745Z 20006KT 18/12 A2981 RMK A01 T01790123  RH  072%=      5-min Rain = 0
KNOR 240750Z 16004KT 18/12 A2981 RMK A01 T01770122  RH  073%=      5-min Rain = 0
KNOR 240755Z 16004KT 18/12 A2981 RMK A01 T01830121  RH  069%=      5-min Rain = 0
KNOR 240800Z 20005KT 18/12 A2981 RMK A01 T01760123  RH  074%=      5-min Rain = 0
KNOR 240805Z 20002KT 17/12 A2981 RMK A01 T01720123  RH  076%=      5-min Rain = 0
KNOR 240810Z 19002KT 17/12 A2981 RMK A01 T01740124  RH  075%=      5-min Rain = 0
KNOR 240815Z 20002KT 18/12 A2981 RMK A01 T01760122  RH  073%=      5-min Rain = 0
KNOR 240820Z 19004KT 18/12 A2981 RMK A01 T01780121  RH  072%=      5-min Rain = 0
KNOR 240825Z 18004KT 18/12 A2981 RMK A01 T01760122  RH  073%=      5-min Rain = 0
KNOR 240830Z 19006KT 17/12 A2981 RMK A01 T01730122  RH  075%=      5-min Rain = 0
KNOR 240835Z 19005KT 17/12 A2982 RMK A01 T01700123  RH  077%=      5-min Rain = 0
KNOR 240840Z 19006KT 17/12 A2982 RMK A01 T01710123  RH  076%=      5-min Rain = 0
KNOR 240845Z 19003KT 17/12 A2983 RMK A01 T01740123  RH  075%=      5-min Rain = 0
KNOR 240850Z 19004KT 17/12 A2983 RMK A01 T01730123  RH  075%=      5-min Rain = 0
KNOR 240855Z 19002KT 17/12 A2983 RMK A01 T01740123  RH  075%=      5-min Rain = 0
KNOR 240900Z 19002KT 17/12 A2982 RMK A01 T01730123  RH  075%=      5-min Rain = 0
KNOR 240905Z 17005KT 17/12 A2982 RMK A01 T01720124  RH  076%=      5-min Rain = 0
KNOR 240910Z 16005KT 17/12 A2982 RMK A01 T01730124  RH  076%=      5-min Rain = 0
KNOR 240915Z 16005KT 18/12 A2982 RMK A01 T01760123  RH  074%=      5-min Rain = 0
KNOR 240920Z 15005KT 17/12 A2982 RMK A01 T01740123  RH  075%=      5-min Rain = 0
KNOR 240925Z 15005KT 17/12 A2982 RMK A01 T01720124  RH  076%=      5-min Rain = 0
KNOR 240930Z 16005KT 17/12 A2982 RMK A01 T01700124  RH  077%=      5-min Rain = 0
KNOR 240935Z 18005KT 17/13 A2982 RMK A01 T01680125  RH  079%=      5-min Rain = 0
KNOR 240940Z 18005KT 17/12 A2982 RMK A01 T01690124  RH  078%=      5-min Rain = 0
KNOR 240945Z 20006KT 17/12 A2982 RMK A01 T01690124  RH  078%=      5-min Rain = 0
KNOR 240950Z 18007KT 17/13 A2982 RMK A01 T01680125  RH  078%=      5-min Rain = 0
KNOR 240955Z 19006KT 17/12 A2982 RMK A01 T01700124  RH  078%=      5-min Rain = 0
KNOR 241000Z 20005KT 17/12 A2981 RMK A01 T01690124  RH  078%=      5-min Rain = 0
KNOR 241005Z 20005KT 17/12 A2981 RMK A01 T01660124  RH  079%=      5-min Rain = 0
KNOR 241010Z 21005KT 17/13 A2981 RMK A01 T01650125  RH  080%=      5-min Rain = 0
KNOR 241015Z 20004KT 17/13 A2981 RMK A01 T01650125  RH  080%=      5-min Rain = 0
KNOR 241020Z 20005KT 16/13 A2981 RMK A01 T01640125  RH  080%=      5-min Rain = 0
KNOR 241025Z 20005KT 16/13 A2981 RMK A01 T01630125  RH  081%=      5-min Rain = 0
KNOR 241030Z 20005KT 16/13 A2981 RMK A01 T01640125  RH  080%=      5-min Rain = 0
KNOR 241035Z 20005KT 16/13 A2981 RMK A01 T01640125  RH  081%=      5-min Rain = 0
KNOR 241040Z 20005KT 17/13 A2981 RMK A01 T01650125  RH  080%=      5-min Rain = 0
KNOR 241045Z 21004KT 17/13 A2982 RMK A01 T01650125  RH  080%=      5-min Rain = 0
KNOR 241050Z 20005KT 16/13 A2982 RMK A01 T01640125  RH  081%=      5-min Rain = 0
KNOR 241055Z 19005KT 16/13 A2981 RMK A01 T01640125  RH  081%=      5-min Rain = 0
KNOR 241100Z 20006KT 17/13 A2982 RMK A01 T01660126  RH  080%=      5-min Rain = 0
KNOR 241105Z 20006KT 17/13 A2982 RMK A01 T01680126  RH  079%=      5-min Rain = 0
KNOR 241110Z 24005KT 16/13 A2982 RMK A01 T01640125  RH  081%=      5-min Rain = 0
KNOR 241115Z 26003KT 16/13 A2982 RMK A01 T01600125  RH  083%=      5-min Rain = 0
KNOR 241120Z 26003KT 16/13 A2982 RMK A01 T01610125  RH  082%=      5-min Rain = 0
KNOR 241125Z 24003KT 17/12 A2982 RMK A01 T01650124  RH  080%=      5-min Rain = 0
KNOR 241130Z 23003KT 16/12 A2982 RMK A01 T01630124  RH  080%=      5-min Rain = 0
KNOR 241135Z 23002KT 16/12 A2981 RMK A01 T01620124  RH  081%=      5-min Rain = 0
KNOR 241140Z 22002KT 16/12 A2981 RMK A01 T01640124  RH  080%=      5-min Rain = 0
KNOR 241145Z 23002KT 17/12 A2981 RMK A01 T01650124  RH  079%=      5-min Rain = 0
KNOR 241150Z 22003KT 17/12 A2982 RMK A01 T01650123  RH  079%=      5-min Rain = 0
KNOR 241155Z 22004KT 16/12 A2982 RMK A01 T01640124  RH  080%=      5-min Rain = 0
KNOR 241200Z 21004KT 16/12 A2982 RMK A01 T01620124  RH  081%=      5-min Rain = 0
KNOR 241205Z 20004KT 16/12 A2983 RMK A01 T01600124  RH  082%=      5-min Rain = 0
KNOR 241210Z 19004KT 16/12 A2983 RMK A01 T01590124  RH  083%=      5-min Rain = 0
KNOR 241215Z 19005KT 16/13 A2983 RMK A01 T01600125  RH  083%=      5-min Rain = 0
KNOR 241220Z 18006KT 16/13 A2983 RMK A01 T01620126  RH  082%=      5-min Rain = 0
KNOR 241225Z 18006KT 16/13 A2982 RMK A01 T01640128  RH  083%=      5-min Rain = 0
KNOR 241230Z 17007KT 17/13 A2982 RMK A01 T01650129  RH  083%=      5-min Rain = 0
KNOR 241235Z 17008KT 17/13 A2982 RMK A01 T01660129  RH  082%=      5-min Rain = 0
KNOR 241240Z 17008KT 17/13 A2982 RMK A01 T01680130  RH  081%=      5-min Rain = 0
KNOR 241245Z 18007KT 17/13 A2983 RMK A01 T01720131  RH  080%=      5-min Rain = 0
KNOR 241250Z 18008KT 18/13 A2983 RMK A01 T01770132  RH  078%=      5-min Rain = 0
KNOR 241255Z 18007KT 18/13 A2983 RMK A01 T01810133  RH  076%=      5-min Rain = 0
KNOR 241300Z 18007G12KT 18/13 A2983 RMK A01 T01840132  RH  075%=      5-min Rain = 0
KNOR 241305Z 19006KT 19/13 A2983 RMK A01 T01870133  RH  074%=      5-min Rain = 0
KNOR 241310Z 18005KT 19/13 A2983 RMK A01 T01910132  RH  072%=      5-min Rain = 0
KNOR 241315Z 19006KT 19/13 A2983 RMK A01 T01940134  RH  071%=      5-min Rain = 0
KNOR 241320Z 18007KT 20/13 A2983 RMK A01 T01970134  RH  070%=      5-min Rain = 0
KNOR 241325Z 17009G14KT 20/13 A2982 RMK A01 T01980134  RH  069%=      5-min Rain = 0
KNOR 241330Z 17010KT 20/14 A2982 RMK A01 T02020136  RH  069%=      5-min Rain = 0
KNOR 241335Z 18010KT 21/14 A2982 RMK A01 T02050138  RH  068%=      5-min Rain = 0
KNOR 241340Z 17012KT 21/14 A2982 RMK A01 T02060138  RH  068%=      5-min Rain = 0
KNOR 241345Z 16012KT 21/14 A2982 RMK A01 T02090141  RH  068%=      5-min Rain = 0
KNOR 241350Z 16012KT 21/14 A2982 RMK A01 T02120143  RH  067%=      5-min Rain = 0
KNOR 241355Z 16013KT 21/15 A2982 RMK A01 T02140145  RH  067%=      5-min Rain = 0
KNOR 241400Z 16011G16KT 22/15 A2982 RMK A01 T02180148  RH  067%=      5-min Rain = 0
KNOR 241405Z 16011KT 22/15 A2982 RMK A01 T02220149  RH  066%=      5-min Rain = 0
KNOR 241410Z 16009KT 22/15 A2983 RMK A01 T02240150  RH  066%=      5-min Rain = 0
KNOR 241415Z 17009G14KT 23/15 A2983 RMK A01 T02280152  RH  065%=      5-min Rain = 0
KNOR 241420Z 16009G14KT 23/15 A2983 RMK A01 T02310154  RH  064%=      5-min Rain = 0
KNOR 241425Z 18011G16KT 24/16 A2983 RMK A01 T02360155  RH  063%=      5-min Rain = 0
KNOR 241430Z 17013KT 24/15 A2983 RMK A01 T02410154  RH  061%=      5-min Rain = 0
KNOR 241435Z 17014KT 24/15 A2983 RMK A01 T02380154  RH  062%=      5-min Rain = 0
KNOR 241440Z 18014KT 24/16 A2983 RMK A01 T02410155  RH  061%=      5-min Rain = 0
KNOR 241445Z 19013G18KT 25/15 A2983 RMK A01 T02450152  RH  059%=      5-min Rain = 0
KNOR 241450Z 19013KT 25/15 A2983 RMK A01 T02490149  RH  056%=      5-min Rain = 0
KNOR 241455Z 19016G22KT 25/15 A2983 RMK A01 T02510147  RH  055%=      5-min Rain = 0
KNOR 241500Z 19013G18KT 25/15 A2983 RMK A01 T02530147  RH  054%=      5-min Rain = 0
KNOR 241505Z 19012G19KT 26/15 A2983 RMK A01 T02580147  RH  053%=      5-min Rain = 0
KNOR 241510Z 19014G20KT 26/14 A2983 RMK A01 T02570144  RH  052%=      5-min Rain = 0
KNOR 241515Z 20015G22KT 26/14 A2982 RMK A01 T02610144  RH  051%=      5-min Rain = 0
KNOR 241520Z 20018G23KT 26/14 A2982 RMK A01 T02580141  RH  050%=      5-min Rain = 0
KNOR 241525Z 18015G20KT 26/14 A2982 RMK A01 T02610142  RH  050%=      5-min Rain = 0
KNOR 241530Z 18014G21KT 27/14 A2981 RMK A01 T02670144  RH  049%=      5-min Rain = 0
KNOR 241535Z 19012G18KT 27/14 A2981 RMK A01 T02670144  RH  049%=      5-min Rain = 0
KNOR 241540Z 19011G17KT 28/15 A2981 RMK A01 T02750148  RH  048%=      5-min Rain = 0
KNOR 241545Z 19015G22KT 27/15 A2981 RMK A01 T02720146  RH  048%=      5-min Rain = 0
KNOR 241550Z 19019G26KT 27/14 A298 RMK A01 T02720144  RH  048%=      5-min Rain = 0
KNOR 241555Z 20020G25KT 27/15 A298 RMK A01 T02710145  RH  048%=      5-min Rain = 0
KNOR 241600Z 20020G25KT 27/15 A298 RMK A01 T02710145  RH  048%=      5-min Rain = 0
KNOR 241605Z 19018G25KT 28/15 A298 RMK A01 T02770149  RH  048%=      5-min Rain = 0
KNOR 241610Z 19019G28KT 28/15 A298 RMK A01 T02770149  RH  048%=      5-min Rain = 0
KNOR 241615Z 20019G26KT 28/15 A298 RMK A01 T02770150  RH  048%=      5-min Rain = 0
KNOR 241620Z 19020G27KT 28/15 A298 RMK A01 T02770150  RH  048%=      5-min Rain = 0
KNOR 241625Z 20018G25KT 28/15 A298 RMK A01 T02790151  RH  048%=      5-min Rain = 0
KNOR 241630Z 19018G25KT 28/15 A298 RMK A01 T02810150  RH  047%=      5-min Rain = 0
KNOR 241635Z 19018G23KT 28/15 A298 RMK A01 T02830150  RH  046%=      5-min Rain = 0
KNOR 241640Z 19019G26KT 28/15 A298 RMK A01 T02810149  RH  046%=      5-min Rain = 0
KNOR 241645Z 18017G22KT 28/15 A298 RMK A01 T02820149  RH  046%=      5-min Rain = 0
KNOR 241650Z 18018G24KT 28/15 A298 RMK A01 T02840148  RH  045%=      5-min Rain = 0
KNOR 241655Z 18018G24KT 29/15 A298 RMK A01 T02860149  RH  045%=      5-min Rain = 0
KNOR 241700Z 18019KT 29/15 A298 RMK A01 T02860148  RH  045%=      5-min Rain = 0
KNOR 241705Z 19018G25KT 29/15 A298 RMK A01 T02860148  RH  045%=      5-min Rain = 0
KNOR 241710Z 19017KT 29/15 A298 RMK A01 T02870148  RH  045%=      5-min Rain = 0
KNOR 241715Z 18018G23KT 29/15 A298 RMK A01 T02870148  RH  045%=      5-min Rain = 0
KNOR 241720Z 18017G23KT 29/15 A298 RMK A01 T02910150  RH  044%=      5-min Rain = 0
KNOR 241725Z 18018G24KT 29/15 A298 RMK A01 T02920150  RH  044%=      5-min Rain = 0
KNOR 241730Z 20018G24KT 29/15 A298 RMK A01 T02900150  RH  044%=      5-min Rain = 0
KNOR 241735Z 19013G21KT 30/15 A298 RMK A01 T02950153  RH  044%=      5-min Rain = 0
KNOR 241740Z 19016G22KT 30/15 A298 RMK A01 T02960152  RH  044%=      5-min Rain = 0
KNOR 241745Z 19017G24KT 30/15 A2979 RMK A01 T02950152  RH  044%=      5-min Rain = 0
KNOR 241750Z 19016G21KT 30/15 A2979 RMK A01 T02950153  RH  044%=      5-min Rain = 0
KNOR 241755Z 19015G21KT 29/15 A2979 RMK A01 T02940153  RH  044%=      5-min Rain = 0
KNOR 241800Z 19016G24KT 30/15 A2979 RMK A01 T02990154  RH  043%=      5-min Rain = 0
KNOR 241805Z 18014G24KT 30/16 A2979 RMK A01 T03000155  RH  043%=      5-min Rain = 0
KNOR 241810Z 18014G19KT 30/15 A2979 RMK A01 T03020153  RH  042%=      5-min Rain = 0
KNOR 241815Z 20015G22KT 31/15 A2979 RMK A01 T03050154  RH  042%=      5-min Rain = 0
KNOR 241820Z 19014G21KT 31/16 A2979 RMK A01 T03060155  RH  042%=      5-min Rain = 0
KNOR 241825Z 19014G21KT 30/15 A2979 RMK A01 T03010153  RH  043%=      5-min Rain = 0
KNOR 241830Z 19013KT 30/15 A2978 RMK A01 T02970151  RH  043%=      5-min Rain = 0
KNOR 241835Z 20013G20KT 30/16 A2978 RMK A01 T03010155  RH  043%=      5-min Rain = 0
KNOR 241840Z 18014G21KT 31/16 A2978 RMK A01 T03070156  RH  042%=      5-min Rain = 0
KNOR 241845Z 19012G19KT 31/16 A2978 RMK A01 T03070156  RH  042%=      5-min Rain = 0
KNOR 241850Z 21012KT 30/15 A2978 RMK A01 T03030154  RH  042%=      5-min Rain = 0
KNOR 241855Z 19013G21KT 31/16 A2977 RMK A01 T03080158  RH  042%=      5-min Rain = 0
KNOR 241900Z 19012G19KT 30/16 A2977 RMK A01 T03040155  RH  042%=      5-min Rain = 0
KNOR 241905Z 18013G19KT 31/16 A2977 RMK A01 T03070158  RH  042%=      5-min Rain = 0
KNOR 241910Z 18013G19KT 31/16 A2976 RMK A01 T03120159  RH  042%=      5-min Rain = 0
KNOR 241915Z 19012G19KT 30/16 A2976 RMK A01 T03020155  RH  043%=      5-min Rain = 0
KNOR 241920Z 19013G20KT 31/16 A2976 RMK A01 T03110157  RH  041%=      5-min Rain = 0
KNOR 241925Z 19009G16KT 30/15 A2976 RMK A01 T02990154  RH  043%=      5-min Rain = 0
KNOR 241930Z 18010G18KT 30/16 A2975 RMK A01 T03000157  RH  044%=      5-min Rain = 0
KNOR 241935Z 20011G16KT 31/16 A2975 RMK A01 T03090156  RH  041%=      5-min Rain = 0
KNOR 241940Z 19011G18KT 31/16 A2975 RMK A01 T03070157  RH  042%=      5-min Rain = 0
KNOR 241945Z 19010G18KT 30/16 A2975 RMK A01 T03040155  RH  043%=      5-min Rain = 0
KNOR 241950Z 19012G20KT 31/16 A2975 RMK A01 T03140158  RH  041%=      5-min Rain = 0
KNOR 241955Z 20012G18KT 31/15 A2975 RMK A01 T03100153  RH  041%=      5-min Rain = 0
KNOR 242000Z 19008G16KT 32/16 A2974 RMK A01 T03200156  RH  039%=      5-min Rain = 0
KNOR 242005Z 20012G18KT 32/16 A2974 RMK A01 T03220159  RH  039%=      5-min Rain = 0
KNOR 242010Z 20012KT 32/16 A2974 RMK A01 T03210155  RH  039%=      5-min Rain = 0
KNOR 242015Z 20010G16KT 32/15 A2974 RMK A01 T03160154  RH  039%=      5-min Rain = 0
KNOR 242020Z 19012G17KT 32/16 A2973 RMK A01 T03210155  RH  039%=      5-min Rain = 0
KNOR 242025Z 17010G18KT 32/16 A2973 RMK A01 T03170156  RH  040%=      5-min Rain = 0
KNOR 242030Z 16010G15KT 31/16 A2973 RMK A01 T03140160  RH  041%=      5-min Rain = 0
KNOR 242035Z 17011G16KT 32/16 A2973 RMK A01 T03240159  RH  039%=      5-min Rain = 0
KNOR 242040Z 21012KT 33/15 A2973 RMK A01 T03250154  RH  037%=      5-min Rain = 0
KNOR 242045Z 18014G19KT 33/16 A2972 RMK A01 T03250159  RH  039%=      5-min Rain = 0
KNOR 242050Z 17011G17KT 32/16 A2972 RMK A01 T03220160  RH  039%=      5-min Rain = 0
KNOR 242055Z 16012G17KT 32/16 A2972 RMK A01 T03220161  RH  040%=      5-min Rain = 0
KNOR 242100Z 17015G20KT 32/16 A2971 RMK A01 T03220160  RH  040%=      5-min Rain = 0
KNOR 242105Z 18013G18KT 32/16 A2971 RMK A01 T03210159  RH  039%=      5-min Rain = 0
KNOR 242110Z 17011G18KT 33/16 A297 RMK A01 T03270163  RH  039%=      5-min Rain = 0
KNOR 242115Z 18013G19KT 33/16 A297 RMK A01 T03280162  RH  039%=      5-min Rain = 0
KNOR 242120Z 16013KT 33/16 A297 RMK A01 T03260159  RH  038%=      5-min Rain = 0
KNOR 242125Z 16011G17KT 32/16 A297 RMK A01 T03210158  RH  039%=      5-min Rain = 0
KNOR 242130Z 16009G14KT 32/16 A2969 RMK A01 T03190157  RH  039%=      5-min Rain = 0
KNOR 242135Z 18012G18KT 32/16 A2969 RMK A01 T03210157  RH  039%=      5-min Rain = 0
KNOR 242140Z 16009G15KT 33/15 A2969 RMK A01 T03250153  RH  037%=      5-min Rain = 0
KNOR 242145Z 16010G20KT 33/16 A2969 RMK A01 T03250157  RH  038%=      5-min Rain = 0
KNOR 242150Z 16011G18KT 33/16 A2968 RMK A01 T03260158  RH  038%=      5-min Rain = 0
KNOR 242155Z 16013G19KT 32/16 A2968 RMK A01 T03240157  RH  038%=      5-min Rain = 0
KNOR 242200Z 18011KT 33/16 A2968 RMK A01 T03260155  RH  037%=      5-min Rain = 0
KNOR 242205Z 18012G17KT 33/15 A2968 RMK A01 T03260154  RH  037%=      5-min Rain = 0
KNOR 242210Z 17011KT 33/15 A2967 RMK A01 T03250152  RH  037%=      5-min Rain = 0
KNOR 242215Z 15013G18KT 32/15 A2967 RMK A01 T03190151  RH  038%=      5-min Rain = 0
KNOR 242220Z 16011KT 32/15 A2967 RMK A01 T03230152  RH  037%=      5-min Rain = 0
KNOR 242225Z 15012G18KT 33/16 A2966 RMK A01 T03270158  RH  038%=      5-min Rain = 0
KNOR 242230Z 13012G18KT 33/16 A2966 RMK A01 T03250161  RH  039%=      5-min Rain = 0
KNOR 242235Z 14013G19KT 33/16 A2966 RMK A01 T03250158  RH  038%=      5-min Rain = 0
KNOR 242240Z 15010KT 32/16 A2965 RMK A01 T03180156  RH  039%=      5-min Rain = 0
KNOR 242245Z 15010G16KT 33/16 A2965 RMK A01 T03250163  RH  040%=      5-min Rain = 0
KNOR 242250Z 16013G20KT 32/16 A2965 RMK A01 T03240162  RH  040%=      5-min Rain = 0
KNOR 242255Z 14012G18KT 32/16 A2965 RMK A01 T03210161  RH  040%=      5-min Rain = 0
KNOR 242300Z 14011KT 31/16 A2965 RMK A01 T03100158  RH  042%=      5-min Rain = 0
KNOR 242305Z 15013KT 32/16 A2964 RMK A01 T03170162  RH  041%=      5-min Rain = 0
KNOR 242310Z 13013G18KT 32/16 A2964 RMK A01 T03170163  RH  042%=      5-min Rain = 0
KNOR 242315Z 13012G19KT 31/16 A2964 RMK A01 T03120163  RH  043%=      5-min Rain = 0
KNOR 242320Z 14014KT 31/16 A2963 RMK A01 T03060159  RH  043%=      5-min Rain = 0
KNOR 242325Z 14011G17KT 32/16 A2963 RMK A01 T03150160  RH  041%=      5-min Rain = 0
KNOR 242330Z 14012G19KT 32/16 A2963 RMK A01 T03160162  RH  041%=      5-min Rain = 0
KNOR 242335Z 14013G18KT 31/16 A2963 RMK A01 T03110162  RH  042%=      5-min Rain = 0
KNOR 242340Z 15013G18KT 31/16 A2964 RMK A01 T03070162  RH  044%=      5-min Rain = 0
KNOR 242345Z 15011G17KT 30/16 A2964 RMK A01 T03040164  RH  045%=      5-min Rain = 0
KNOR 242350Z 15013G18KT 30/16 A2964 RMK A01 T03030163  RH  045%=      5-min Rain = 0
KNOR 242355Z 14012G18KT 30/16 A2964 RMK A01 T03000162  RH  045%=      5-min Rain = 0
KNOR 250000Z 14012G17KT 30/16 A2964 RMK A01 T03000161  RH  045%=      5-min Rain = 0
KNOR 250005Z 14013G18KT 30/16 A2964 RMK A01 T02990161  RH  045%=      5-min Rain = 0
KNOR 250010Z 14014G20KT 30/16 A2964 RMK A01 T02980161  RH  046%=      5-min Rain = 0
KNOR 250015Z 14013G19KT 30/16 A2964 RMK A01 T02970160  RH  046%=      5-min Rain = 0
KNOR 250020Z 14011G16KT 30/16 A2963 RMK A01 T02950160  RH  046%=      5-min Rain = 0
KNOR 250025Z 13010KT 29/16 A2963 RMK A01 T02930161  RH  047%=      5-min Rain = 0
KNOR 250030Z 13008KT 29/16 A2963 RMK A01 T02920161  RH  047%=      5-min Rain = 0
KNOR 250035Z 14010G16KT 29/16 A2963 RMK A01 T02910161  RH  047%=      5-min Rain = 0
KNOR 250040Z 14010KT 29/16 A2963 RMK A01 T02910160  RH  047%=      5-min Rain = 0
KNOR 250045Z 13009KT 29/16 A2963 RMK A01 T02890160  RH  048%=      5-min Rain = 0
KNOR 250050Z 13008G13KT 29/16 A2963 RMK A01 T02880161  RH  048%=      5-min Rain = 0
KNOR 250055Z 13010G15KT 29/16 A2963 RMK A01 T02880161  RH  048%=      5-min Rain = 0
KNOR 250100Z 13011KT 29/16 A2963 RMK A01 T02880159  RH  048%=      5-min Rain = 0
KNOR 250105Z 14011KT 29/16 A2963 RMK A01 T02870158  RH  048%=      5-min Rain = 0
KNOR 250110Z 13010KT 29/16 A2963 RMK A01 T02860157  RH  048%=      5-min Rain = 0
KNOR 250115Z 14010G15KT 28/16 A2963 RMK A01 T02840157  RH  048%=      5-min Rain = 0
KNOR 250120Z 13010G15KT 28/16 A2963 RMK A01 T02840156  RH  048%=      5-min Rain = 0
KNOR 250125Z 21016G29KT 28/14 A2968 RMK A01 T02770136  RH  044%=      5-min Rain = 0
KNOR 250130Z 21023G37KT 24/09 A2971 RMK A01 T02370088  RH  040%=      5-min Rain = 0
KNOR 250135Z 22023G37KT 21/11 A297 RMK A01 T02090111  RH  056%=      5-min Rain = 0
KNOR 250140Z 25027G36KT 17/13 A2969 RMK A01 T01680132  RH  082%=      5-min Rain = 0.06
KNOR 250145Z 25026G35KT 16/14 A297 RMK A01 T01610137  RH  089%=      5-min Rain = 0.02
KNOR 250150Z 25020G30KT 16/14 A2972 RMK A01 T01640137  RH  088%=      5-min Rain = 0.01
KNOR 250155Z 24022G29KT 17/14 A2973 RMK A01 T01650138  RH  088%=      5-min Rain = 0.05
KNOR 250200Z 23017G25KT 16/14 A2971 RMK A01 T01620139  RH  090%=      5-min Rain = 0.07
KNOR 250205Z 23015KT 16/14 A297 RMK A01 T01620141  RH  091%=      5-min Rain = 0.03
KNOR 250210Z 23014G19KT 17/14 A2971 RMK A01 T01660140  RH  088%=      5-min Rain = 0.02
KNOR 250215Z 21010KT 17/14 A2973 RMK A01 T01690140  RH  086%=      5-min Rain = 0.01
KNOR 250220Z 21006KT 17/14 A2975 RMK A01 T01700140  RH  086%=      5-min Rain = 0
KNOR 250225Z 17008KT 17/14 A2977 RMK A01 T01720142  RH  086%=      5-min Rain = 0
KNOR 250230Z 15010KT 17/15 A2978 RMK A01 T01710145  RH  088%=      5-min Rain = 0.01
KNOR 250235Z 15010G15KT 17/14 A2979 RMK A01 T01700143  RH  088%=      5-min Rain = 0
KNOR 250240Z 16008KT 17/14 A2979 RMK A01 T01730143  RH  086%=      5-min Rain = 0.01
KNOR 250245Z 14012KT 17/14 A2979 RMK A01 T01710142  RH  087%=      5-min Rain = 0.01
KNOR 250250Z 16011G16KT 17/14 A298 RMK A01 T01670144  RH  090%=      5-min Rain = 0
KNOR 250255Z 16010KT 17/15 A2982 RMK A01 T01650145  RH  092%=      5-min Rain = 0.01
KNOR 250300Z 13005G11KT 17/15 A2982 RMK A01 T01650145  RH  092%=      5-min Rain = 0.01
KNOR 250305Z 01005KT 16/15 A2984 RMK A01 T01640145  RH  093%=      5-min Rain = 0.02
KNOR 250310Z 11003KT 17/15 A2984 RMK A01 T01650147  RH  093%=      5-min Rain = 0.01
KNOR 250315Z 10005KT 17/15 A2985 RMK A01 T01650147  RH  093%=      5-min Rain = 0.01
KNOR 250320Z 07006KT 16/15 A2984 RMK A01 T01640147  RH  093%=      5-min Rain = 0.02
KNOR 250325Z 06009KT 16/15 A2982 RMK A01 T01630147  RH  094%=      5-min Rain = 0.01
KNOR 250330Z 11009KT 16/15 A2982 RMK A01 T01630148  RH  095%=      5-min Rain = 0.01
KNOR 250335Z 12009KT 16/15 A2982 RMK A01 T01630149  RH  096%=      5-min Rain = 0.01
KNOR 250340Z 09006KT 16/15 A2982 RMK A01 T01610147  RH  096%=      5-min Rain = 0.01
KNOR 250345Z 08009KT 16/15 A2981 RMK A01 T01610147  RH  096%=      5-min Rain = 0.01
KNOR 250350Z 08010G15KT 16/15 A2981 RMK A01 T01620147  RH  095%=      5-min Rain = 0.02
KNOR 250355Z 09009G14KT 16/15 A2981 RMK A01 T01620147  RH  095%=      5-min Rain = 0.01
KNOR 250400Z 09007KT 16/15 A2981 RMK A01 T01620148  RH  096%=      5-min Rain = 0.01
KNOR 250405Z 10011G16KT 16/15 A2981 RMK A01 T01610148  RH  096%=      5-min Rain = 0.02
KNOR 250410Z 10011G16KT 16/15 A2982 RMK A01 T01600147  RH  096%=      5-min Rain = 0.03
KNOR 250415Z 10012G18KT 16/15 A2982 RMK A01 T01590147  RH  096%=      5-min Rain = 0.01
KNOR 250420Z 09012G17KT 16/15 A2983 RMK A01 T01600147  RH  097%=      5-min Rain = 0.02
KNOR 250425Z 09011G18KT 16/15 A2984 RMK A01 T01600148  RH  097%=      5-min Rain = 0.02
KNOR 250430Z 10011G18KT 16/15 A2985 RMK A01 T01600148  RH  097%=      5-min Rain = 0.02
KNOR 250435Z 10011KT 16/15 A2986 RMK A01 T01610150  RH  097%=      5-min Rain = 0.02
KNOR 250440Z 10013G21KT 16/15 A2986 RMK A01 T01610150  RH  097%=      5-min Rain = 0.03
KNOR 250445Z 10015G23KT 16/15 A2985 RMK A01 T01600149  RH  098%=      5-min Rain = 0.02
KNOR 250450Z 10015G22KT 16/15 A2985 RMK A01 T01590149  RH  098%=      5-min Rain = 0.03
KNOR 250455Z 09016G26KT 16/15 A2985 RMK A01 T01600149  RH  098%=      5-min Rain = 0.02

Page generated in 0.0093 seconds.